Time;durP1;ratioP1;P1;durP2;ratioP2;P2;SDS_P1;SDS_P2;PMS_P1;PMS_P2;Temp;Humidity;BMP_temperature;BMP_pressure;BME280_temperature;BME280_humidity;BME280_pressure;Samples;Min_cycle;Max_cycle;Signal;HPM_P1;HPM_P2
2023/10/11 00:02:18;;;;;;;12.60;6.10;;;;;;;15.66;100.00;101092.63;10391916;28;20038;-79
2023/10/11 00:07:19;;;;;;;12.77;5.78;;;;;;;15.66;100.00;101097.34;10397155;28;20049;-80
2023/10/11 00:12:20;;;;;;;12.23;6.43;;;;;;;15.67;100.00;101094.31;10376303;28;20046;-80
2023/10/11 00:17:20;;;;;;;11.80;6.35;;;;;;;15.67;100.00;101105.41;10392606;28;20575;-80
2023/10/11 00:22:24;;;;;;;12.35;6.53;;;;;;;15.64;100.00;101100.41;10394301;28;20061;-80
2023/10/11 00:27:28;;;;;;;13.30;7.55;;;;;;;15.59;100.00;101097.66;10395237;28;20050;-80
2023/10/11 00:32:29;;;;;;;14.43;7.45;;;;;;;15.52;100.00;101081.31;10402496;28;20061;-80
2023/10/11 00:37:29;;;;;;;17.83;7.85;;;;;;;15.50;100.00;101078.00;10402783;28;20046;-80
2023/10/11 00:42:32;;;;;;;14.15;7.60;;;;;;;15.49;100.00;101084.63;10399907;28;20053;-78
2023/10/11 00:47:40;;;;;;;16.08;9.35;;;;;;;15.40;100.00;101066.94;10389999;28;20037;-81
2023/10/11 00:52:45;;;;;;;18.48;7.78;;;;;;;15.34;100.00;101056.97;10399992;28;20044;-79
2023/10/11 00:57:47;;;;;;;24.85;10.02;;;;;;;15.38;100.00;101066.38;10401044;28;20049;-80
2023/10/11 01:02:48;;;;;;;23.20;8.43;;;;;;;15.36;100.00;101068.59;10399189;28;20053;-80
2023/10/11 01:07:51;;;;;;;17.50;8.52;;;;;;;15.36;100.00;101074.16;10396450;28;20063;-80
2023/10/11 01:12:51;;;;;;;25.67;10.57;;;;;;;15.34;100.00;101068.88;10400885;28;20120;-79
2023/10/11 01:17:54;;;;;;;27.15;9.68;;;;;;;15.32;100.00;101071.09;10398154;28;20042;-79
2023/10/11 01:22:54;;;;;;;20.40;10.68;;;;;;;15.27;100.00;101067.50;10404646;28;20037;-79
2023/10/11 01:27:54;;;;;;;24.65;10.23;;;;;;;15.35;100.00;101055.81;10397108;28;20038;-79
2023/10/11 01:32:55;;;;;;;29.63;11.75;;;;;;;15.31;100.00;101058.31;10404816;28;20444;-77
2023/10/11 01:37:55;;;;;;;23.92;10.90;;;;;;;15.29;100.00;101045.84;10373600;28;20252;-80
2023/10/11 01:42:56;;;;;;;25.90;10.50;;;;;;;15.26;100.00;101043.66;10400689;28;20041;-80
2023/10/11 01:47:56;;;;;;;22.08;11.95;;;;;;;15.25;100.00;101042.00;10396142;28;20042;-80
2023/10/11 01:52:57;;;;;;;28.25;11.02;;;;;;;15.21;100.00;101035.34;10401662;28;20041;-79
2023/10/11 01:57:57;;;;;;;22.33;10.68;;;;;;;15.22;100.00;101043.38;10398721;28;20045;-78
2023/10/11 02:02:58;;;;;;;27.75;12.43;;;;;;;15.14;100.00;101028.16;10398403;28;20054;-72
2023/10/11 02:08:04;;;;;;;25.02;10.90;;;;;;;15.21;100.00;101032.56;10398075;28;20037;-78
2023/10/11 02:13:06;;;;;;;21.50;11.40;;;;;;;15.17;100.00;101029.50;10395000;28;20052;-78
2023/10/11 02:18:10;;;;;;;22.40;11.23;;;;;;;15.10;100.00;101024.28;10400157;28;20042;-79
2023/10/11 02:23:14;;;;;;;26.77;13.80;;;;;;;15.05;100.00;101032.63;10397718;28;20048;-79
2023/10/11 02:28:15;;;;;;;25.13;10.90;;;;;;;15.11;100.00;101003.75;10381949;28;20382;-79
2023/10/11 02:33:16;;;;;;;29.50;13.32;;;;;;;15.07;100.00;101005.44;10396988;28;20042;-80
2023/10/11 02:38:21;;;;;;;28.98;13.25;;;;;;;15.04;100.00;100997.66;10382784;28;20069;-80
2023/10/11 02:43:23;;;;;;;27.10;13.95;;;;;;;15.00;100.00;100974.38;10390441;28;20049;-80
2023/10/11 02:48:24;;;;;;;28.10;12.98;;;;;;;15.04;100.00;100986.56;10387878;28;20541;-80
2023/10/11 02:53:25;;;;;;;31.60;13.25;;;;;;;15.03;100.00;100989.66;10400254;28;20053;-79
2023/10/11 02:58:26;;;;;;;26.48;13.65;;;;;;;15.05;100.00;100988.25;10393311;28;20037;-80
2023/10/11 03:03:26;;;;;;;31.33;14.38;;;;;;;15.04;100.00;100992.13;10393469;28;20041;-80
2023/10/11 03:08:27;;;;;;;23.30;13.98;;;;;;;15.02;100.00;100986.03;10393361;28;20045;-79
2023/10/11 03:13:30;;;;;;;34.83;15.32;;;;;;;15.05;100.00;100981.88;10399900;28;20045;-79
2023/10/11 03:18:39;;;;;;;39.55;14.48;;;;;;;15.02;100.00;100966.63;10394144;28;20129;-80
2023/10/11 03:23:47;;;;;;;31.20;14.30;;;;;;;15.02;100.00;100949.16;10399421;28;20049;-80
2023/10/11 03:28:57;;;;;;;36.35;14.93;;;;;;;15.03;100.00;100950.84;10393166;28;20041;-80
2023/10/11 03:33:58;;;;;;;33.78;14.77;;;;;;;15.05;100.00;100957.75;10368684;28;20046;-78
2023/10/11 03:39:08;;;;;;;28.58;13.52;;;;;;;15.01;100.00;100937.25;10392697;28;20041;-77
2023/10/11 03:44:17;;;;;;;35.53;14.52;;;;;;;15.11;100.00;100945.53;10382334;28;20038;-77
2023/10/11 03:54:23;;;;;;;36.30;14.88;;;;;;;15.18;100.00;100936.91;10398887;28;20500;-79
2023/10/11 03:59:27;;;;;;;34.85;14.48;;;;;;;15.23;100.00;100947.13;10383462;28;20510;-80
2023/10/11 04:04:27;;;;;;;31.33;12.15;;;;;;;15.28;100.00;100952.69;10382012;28;20062;-78
2023/10/11 04:14:44;;;;;;;29.05;13.05;;;;;;;15.34;100.00;100935.72;10374179;28;20053;-78
2023/10/11 04:19:44;;;;;;;26.70;12.43;;;;;;;15.34;100.00;100954.31;10382683;28;20084;-78
2023/10/11 04:24:45;;;;;;;28.25;12.43;;;;;;;15.33;100.00;100938.78;10399083;28;20456;-78
2023/10/11 04:29:50;;;;;;;31.77;12.90;;;;;;;15.30;100.00;100929.09;10390855;28;20038;-78
2023/10/11 04:34:55;;;;;;;30.55;12.35;;;;;;;15.30;100.00;100944.91;10396594;28;20045;-78
2023/10/11 04:40:22;;;;;;;35.00;13.13;;;;;;;15.24;100.00;100940.50;10386540;28;20129;-82
2023/10/11 04:45:21;;;;;;;25.23;11.52;;;;;;;15.20;100.00;100972.69;10385584;28;20046;-77
2023/10/11 04:50:23;;;;;;;25.38;12.60;;;;;;;15.11;100.00;100956.63;10388367;28;20124;-77
2023/10/11 04:55:34;;;;;;;25.13;11.95;;;;;;;15.11;100.00;100959.41;10390185;28;20049;-77
2023/10/11 05:00:45;;;;;;;26.73;13.07;;;;;;;15.09;100.00;100938.63;10390308;28;20041;-77
2023/10/11 05:05:58;;;;;;;29.85;13.20;;;;;;;15.06;100.00;100945.53;10394544;28;20048;-75
2023/10/11 05:11:03;;;;;;;24.20;12.20;;;;;;;14.88;100.00;100922.06;10395675;28;20033;-75
2023/10/11 05:16:06;;;;;;;28.70;12.25;;;;;;;14.93;100.00;100935.88;10397671;28;20102;-77
2023/10/11 05:21:14;;;;;;;30.63;13.45;;;;;;;14.90;100.00;100939.22;10402442;28;20037;-76
2023/10/11 05:52:57;;;;;;;35.28;12.55;;;;;;;14.87;100.00;100948.09;10388316;28;20094;-77
2023/10/11 05:58:04;;;;;;;38.63;14.88;;;;;;;14.88;100.00;100937.84;10402503;28;20041;-78
2023/10/11 06:03:06;;;;;;;32.78;13.05;;;;;;;14.84;100.00;100933.97;10388630;28;20038;-77
2023/10/11 06:08:07;;;;;;;40.50;14.70;;;;;;;14.85;100.00;100938.41;10394700;28;20093;-77
2023/10/11 06:13:13;;;;;;;38.88;15.15;;;;;;;14.84;100.00;100932.03;10394864;28;20413;-77
2023/10/11 06:23:33;;;;;;;35.35;14.65;;;;;;;14.86;100.00;100923.41;10387074;28;20414;-78
2023/10/11 06:28:33;;;;;;;36.70;13.93;;;;;;;14.91;100.00;100928.97;10377668;28;20039;-77
2023/10/11 06:33:34;;;;;;;40.40;15.57;;;;;;;14.62;100.00;100895.53;10399224;28;20139;-78
2023/10/11 06:38:41;;;;;;;30.17;14.48;;;;;;;15.05;100.00;100935.56;10395037;28;20045;-78
2023/10/11 06:43:41;;;;;;;35.33;16.13;;;;;;;15.12;100.00;100922.22;10400918;28;20082;-77
2023/10/11 06:48:42;;;;;;;30.30;14.32;;;;;;;15.27;100.00;100951.00;10394974;28;20089;-78
2023/10/11 06:53:45;;;;;;;27.65;13.77;;;;;;;15.34;100.00;100948.78;10398134;28;20056;-78
2023/10/11 06:58:46;;;;;;;34.10;14.68;;;;;;;15.50;100.00;100961.44;10379008;28;20520;-77
2023/10/11 07:03:46;;;;;;;40.40;14.40;;;;;;;15.33;100.00;100916.59;10395246;28;20057;-78
2023/10/11 07:08:49;;;;;;;42.78;14.00;;;;;;;15.66;100.00;100953.03;10395694;28;20046;-83
2023/10/11 07:14:00;;;;;;;33.92;13.90;;;;;;;15.74;100.00;100955.22;10395068;28;20200;-83
2023/10/11 07:19:01;;;;;;;37.22;15.27;;;;;;;15.78;100.00;100934.13;10373492;28;20382;-82
2023/10/11 07:24:19;;;;;;;35.75;13.50;;;;;;;15.87;100.00;100935.16;10395598;28;20049;-81
2023/10/11 07:29:21;;;;;;;35.50;14.85;;;;;;;15.93;100.00;100930.41;10397718;28;20040;-81
2023/10/11 07:34:21;;;;;;;30.85;13.02;;;;;;;16.02;100.00;100948.13;10390551;28;20049;-81
2023/10/11 07:44:27;;;;;;;32.33;13.95;;;;;;;16.09;100.00;100945.00;10385456;28;20397;-82
2023/10/11 07:49:28;;;;;;;35.63;15.02;;;;;;;16.15;100.00;100938.28;10381440;28;20040;-82
2023/10/11 07:54:28;;;;;;;40.90;15.80;;;;;;;16.15;100.00;100921.63;10378412;28;20053;-82
2023/10/11 07:59:30;;;;;;;30.17;14.23;;;;;;;16.21;100.00;100926.00;10377702;28;20049;-80
2023/10/11 08:04:31;;;;;;;40.22;15.40;;;;;;;16.24;100.00;100930.97;10378665;28;20042;-80
2023/10/11 08:09:45;;;;;;;36.10;14.25;;;;;;;16.23;100.00;100931.28;10381435;28;20045;-79
2023/10/11 08:14:46;;;;;;;40.85;16.15;;;;;;;16.27;100.00;100941.50;10390552;28;20033;-81
2023/10/11 08:19:47;;;;;;;37.30;17.05;;;;;;;16.30;100.00;100938.13;10378286;28;20037;-81
2023/10/11 08:24:48;;;;;;;32.80;16.13;;;;;;;16.32;100.00;100949.78;10391042;28;20467;-82
2023/10/11 08:29:54;;;;;;;40.05;16.80;;;;;;;16.28;100.00;100948.72;10396407;28;20092;-81
2023/10/11 08:34:54;;;;;;;40.50;18.27;;;;;;;16.27;100.00;100946.25;10392435;28;20183;-82
2023/10/11 08:39:57;;;;;;;45.13;17.45;;;;;;;16.22;100.00;100952.66;10384895;28;20066;-82
2023/10/11 08:45:00;;;;;;;48.45;20.02;;;;;;;16.06;100.00;100932.53;10392713;28;20094;-82
2023/10/11 08:50:00;;;;;;;41.67;19.63;;;;;;;16.03;100.00;100971.16;10403273;28;20063;-79
2023/10/11 08:55:01;;;;;;;49.55;20.75;;;;;;;16.02;100.00;100966.69;10396986;28;20045;-79
2023/10/11 09:00:17;;;;;;;47.95;21.13;;;;;;;15.99;100.00;100981.19;10397253;28;20101;-81
2023/10/11 09:05:32;;;;;;;53.08;22.80;;;;;;;15.91;100.00;100958.44;10391447;28;20041;-78
2023/10/11 09:10:33;;;;;;;51.92;21.50;;;;;;;15.94;100.00;100977.31;10381234;28;20038;-86
2023/10/11 09:15:40;;;;;;;50.80;22.65;;;;;;;16.00;100.00;100991.16;10399060;28;20068;-79
2023/10/11 09:20:42;;;;;;;59.38;21.85;;;;;;;16.07;100.00;100983.34;10377043;28;20041;-80
2023/10/11 09:25:57;;;;;;;52.58;20.60;;;;;;;16.12;100.00;100988.84;10396081;28;20069;-76
2023/10/11 09:31:20;;;;;;;51.80;19.95;;;;;;;16.17;100.00;100997.16;10400584;28;20043;-79
2023/10/11 09:36:24;;;;;;;36.13;17.33;;;;;;;16.23;100.00;101007.09;10403557;28;20132;-78
2023/10/11 09:41:38;;;;;;;40.85;16.83;;;;;;;16.30;100.00;101009.56;10388452;28;20090;-80
2023/10/11 09:46:43;;;;;;;28.67;14.15;;;;;;;16.35;100.00;101023.41;10377835;28;20107;-78
2023/10/11 09:51:44;;;;;;;40.20;16.67;;;;;;;16.34;100.00;101030.91;10382070;28;20038;-76
2023/10/11 09:56:58;;;;;;;31.67;14.57;;;;;;;16.32;100.00;101041.47;10339331;28;20041;-79
2023/10/11 10:02:24;;;;;;;28.17;13.32;;;;;;;16.39;100.00;101031.97;10389602;28;20049;-82
2023/10/11 10:12:55;;;;;;;32.85;13.18;;;;;;;16.53;100.00;101044.09;10381635;28;20101;-83
2023/10/11 10:17:56;;;;;;;26.23;11.82;;;;;;;16.66;100.00;101037.88;10385003;28;20045;-83
2023/10/11 10:23:15;;;;;;;19.40;8.02;;;;;;;16.94;100.00;101027.91;10379932;28;20058;-81
2023/10/11 10:28:37;;;;;;;16.98;8.48;;;;;;;17.23;100.00;101020.66;10391540;28;20046;-79
2023/10/11 10:33:41;;;;;;;18.85;7.03;;;;;;;17.60;100.00;101016.31;10384818;28;20049;-89
2023/10/11 10:38:59;;;;;;;11.15;5.95;;;;;;;18.14;100.00;101027.00;10391053;28;20041;-78
2023/10/11 10:44:04;;;;;;;14.25;5.30;;;;;;;18.09;100.00;101001.19;10381105;28;20040;-76
2023/10/11 10:49:04;;;;;;;12.75;4.70;;;;;;;18.02;100.00;100995.16;10391699;28;20046;-77
2023/10/11 10:54:14;;;;;;;9.85;5.13;;;;;;;17.91;100.00;101000.88;10399359;28;20304;-76
2023/10/11 10:59:15;;;;;;;16.48;5.95;;;;;;;17.92;100.00;100983.06;10392204;28;20041;-76
2023/10/11 11:04:20;;;;;;;12.85;5.22;;;;;;;18.54;100.00;100968.09;10380274;28;20037;-76
2023/10/11 11:09:26;;;;;;;20.35;6.45;;;;;;;18.94;100.00;100960.16;10375949;28;20050;-78
2023/10/11 11:14:27;;;;;;;8.48;4.65;;;;;;;19.07;100.00;100964.91;10385229;28;20399;-75
2023/10/11 11:19:34;;;;;;;8.82;3.92;;;;;;;19.55;100.00;100961.69;10391438;28;20033;-73
2023/10/11 11:24:34;;;;;;;6.82;3.20;;;;;;;19.55;100.00;100952.47;10390951;28;20038;-76
2023/10/11 11:29:35;;;;;;;10.38;4.13;;;;;;;19.56;100.00;100968.91;10399716;28;20041;-77
2023/10/11 11:34:37;;;;;;;9.90;3.17;;;;;;;19.39;100.00;100949.19;10387621;28;20061;-77
2023/10/11 11:39:40;;;;;;;6.63;2.70;;;;;;;19.38;100.00;100955.91;10391600;28;20042;-82
2023/10/11 11:44:43;;;;;;;4.88;2.67;;;;;;;19.59;100.00;100964.66;10395585;28;20041;-77
2023/10/11 11:49:44;;;;;;;6.25;2.80;;;;;;;19.51;100.00;100968.19;10392003;28;20038;-76
2023/10/11 11:54:44;;;;;;;6.78;3.15;;;;;;;19.18;100.00;100971.09;10385991;28;20038;-74
2023/10/11 11:59:45;;;;;;;5.70;2.63;;;;;;;18.95;100.00;100959.84;10381373;28;20434;-79
2023/10/11 12:04:47;;;;;;;5.47;2.42;;;;;;;18.86;100.00;100970.06;10395538;28;20045;-78
2023/10/11 12:09:48;;;;;;;5.05;2.55;;;;;;;18.94;100.00;100965.75;10399729;28;20133;-78
2023/10/11 12:14:49;;;;;;;8.68;2.90;;;;;;;18.94;100.00;100946.22;10382719;28;20433;-78
2023/10/11 12:19:53;;;;;;;7.35;2.67;;;;;;;19.12;100.00;100938.84;10390369;28;20401;-82
2023/10/11 12:24:58;;;;;;;6.43;2.30;;;;;;;19.81;100.00;100938.78;10389928;28;20050;-80
2023/10/11 12:29:59;;;;;;;5.20;1.95;;;;;;;20.14;100.00;100921.78;10401926;28;20064;-81
2023/10/11 12:35:04;;;;;;;7.35;2.33;;;;;;;20.56;100.00;100920.38;10404337;28;20041;-80
2023/10/11 12:40:12;;;;;;;8.13;2.40;;;;;;;20.41;100.00;100915.22;10401684;28;20489;-80
2023/10/11 12:45:16;;;;;;;5.70;2.55;;;;;;;20.55;100.00;100906.75;10387716;28;20037;-81
2023/10/11 12:50:17;;;;;;;5.93;2.80;;;;;;;20.06;100.00;100930.94;10398139;28;20117;-82
2023/10/11 12:55:20;;;;;;;5.22;2.10;;;;;;;19.73;100.00;100947.91;10394371;28;20037;-81
2023/10/11 13:00:31;;;;;;;4.22;1.92;;;;;;;19.50;100.00;100933.88;10375717;28;20378;-82
2023/10/11 13:05:32;;;;;;;5.20;2.47;;;;;;;19.59;100.00;100941.50;10402801;28;20501;-77
2023/10/11 13:10:34;;;;;;;4.85;2.03;;;;;;;20.78;100.00;100931.91;10398858;28;20026;-81
2023/10/11 13:15:34;;;;;;;4.60;2.85;;;;;;;21.64;100.00;100905.31;10402182;28;20048;-74
2023/10/11 13:20:35;;;;;;;5.53;1.80;;;;;;;22.33;100.00;100893.25;10397948;28;20034;-74
2023/10/11 13:25:36;;;;;;;4.57;2.20;;;;;;;22.35;100.00;100888.94;10403497;28;20097;-77
2023/10/11 13:30:36;;;;;;;4.70;2.35;;;;;;;22.23;100.00;100893.56;10396983;28;20088;-76
2023/10/11 13:35:37;;;;;;;4.38;1.95;;;;;;;21.11;100.00;100910.78;10389485;28;20046;-76
2023/10/11 13:40:39;;;;;;;5.85;1.98;;;;;;;20.68;100.00;100894.66;10401344;28;20043;-75
2023/10/11 13:45:45;;;;;;;6.70;2.25;;;;;;;20.30;100.00;100906.28;10394036;28;20445;-75
2023/10/11 13:50:49;;;;;;;6.57;2.10;;;;;;;19.84;100.00;100920.56;10402920;28;20037;-74
2023/10/11 13:55:51;;;;;;;5.30;1.88;;;;;;;19.85;100.00;100908.25;10396164;28;20045;-72
2023/10/11 14:06:12;;;;;;;6.85;2.50;;;;;;;20.18;100.00;100892.06;10399348;28;20037;-72
2023/10/11 14:11:17;;;;;;;4.72;2.10;;;;;;;20.12;100.00;100888.56;10382816;28;20506;-73
2023/10/11 14:16:21;;;;;;;6.93;1.95;;;;;;;20.04;100.00;100892.13;10385827;28;20494;-72
2023/10/11 14:21:24;;;;;;;6.10;2.20;;;;;;;19.84;100.00;100885.06;10383690;28;20045;-72
2023/10/11 14:26:24;;;;;;;7.90;2.83;;;;;;;19.68;100.00;100869.81;10400185;28;20160;-72
2023/10/11 14:31:25;;;;;;;6.75;2.58;;;;;;;19.50;100.00;100874.41;10393243;28;20117;-73
2023/10/11 14:36:25;;;;;;;10.55;3.53;;;;;;;19.28;100.00;100861.22;10397504;28;20052;-75
2023/10/11 14:41:26;;;;;;;8.93;2.63;;;;;;;19.40;100.00;100867.09;10388545;28;20057;-75
2023/10/11 14:46:26;;;;;;;6.47;2.05;;;;;;;19.45;100.00;100855.81;10394442;28;20068;-73
2023/10/11 14:51:27;;;;;;;4.25;2.03;;;;;;;19.33;100.00;100861.94;10394661;28;20475;-74
2023/10/11 14:56:28;;;;;;;4.20;1.98;;;;;;;19.11;100.00;100845.94;10399408;28;20033;-74
2023/10/11 15:01:33;;;;;;;7.43;2.60;;;;;;;19.03;100.00;100860.63;10398913;28;20434;-73
2023/10/11 15:06:34;;;;;;;9.23;2.53;;;;;;;18.97;100.00;100847.94;10396301;28;20041;-74
2023/10/11 15:11:35;;;;;;;8.88;3.03;;;;;;;18.86;100.00;100858.50;10394694;28;20042;-75
2023/10/11 15:16:35;;;;;;;4.93;2.42;;;;;;;18.75;100.00;100843.91;10388423;28;20104;-74
2023/10/11 15:21:36;;;;;;;10.43;2.53;;;;;;;18.79;100.00;100846.94;10396214;28;20037;-73
2023/10/11 15:26:39;;;;;;;8.48;2.47;;;;;;;18.65;100.00;100862.81;10392004;28;20038;-73
2023/10/11 15:31:40;;;;;;;6.15;2.47;;;;;;;18.18;100.00;100809.06;10399494;28;20044;-73
2023/10/11 15:36:41;;;;;;;6.35;2.78;;;;;;;18.46;100.00;100871.22;10383606;28;20050;-74
2023/10/11 15:41:43;;;;;;;10.75;2.63;;;;;;;18.39;100.00;100871.63;10383876;28;20041;-74
2023/10/11 15:46:44;;;;;;;4.93;2.20;;;;;;;18.44;100.00;100868.78;10396976;28;20091;-72
2023/10/11 15:51:45;;;;;;;9.80;2.53;;;;;;;18.40;100.00;100862.16;10391941;28;20042;-74
2023/10/11 15:56:45;;;;;;;7.80;3.03;;;;;;;18.37;100.00;100873.09;10397369;28;20091;-73
2023/10/11 16:01:52;;;;;;;9.57;2.88;;;;;;;18.29;100.00;100867.09;10393409;28;20129;-72
2023/10/11 16:06:53;;;;;;;7.70;3.20;;;;;;;18.13;100.00;100866.53;10381644;28;20042;-73
2023/10/11 16:11:53;;;;;;;8.27;3.03;;;;;;;17.88;100.00;100850.25;10394193;28;20042;-72
2023/10/11 16:16:56;;;;;;;7.95;4.30;;;;;;;17.73;100.00;100849.34;10393130;28;20112;-72
2023/10/11 16:21:58;;;;;;;15.07;4.57;;;;;;;17.51;100.00;100841.63;10394644;28;20442;-72
2023/10/11 16:26:58;;;;;;;12.95;4.35;;;;;;;17.54;100.00;100891.13;10394692;28;20042;-73
2023/10/11 16:31:59;;;;;;;10.15;4.32;;;;;;;17.51;100.00;100891.72;10393783;28;20045;-73
2023/10/11 16:36:59;;;;;;;12.35;5.38;;;;;;;17.49;100.00;100902.34;10383452;28;20100;-71
2023/10/11 16:42:00;;;;;;;10.43;4.28;;;;;;;17.53;100.00;100885.88;10379778;28;20042;-73
2023/10/11 16:47:06;;;;;;;10.73;4.65;;;;;;;17.48;100.00;100863.66;10389080;28;20034;-73
2023/10/11 16:52:09;;;;;;;14.30;4.95;;;;;;;17.43;100.00;100883.22;10395976;28;20049;-72
2023/10/11 16:57:10;;;;;;;11.80;4.43;;;;;;;17.39;100.00;100880.22;10383638;28;20572;-75
2023/10/11 17:02:12;;;;;;;13.68;5.43;;;;;;;17.42;100.00;100868.47;10394856;28;20053;-73
2023/10/11 17:07:12;;;;;;;10.82;4.32;;;;;;;17.27;100.00;100860.34;10398787;28;20042;-73
2023/10/11 17:12:13;;;;;;;10.05;5.03;;;;;;;17.29;100.00;100877.56;10402986;28;20041;-74
2023/10/11 17:17:15;;;;;;;13.23;5.07;;;;;;;17.21;100.00;100875.47;10400994;28;20048;-73
2023/10/11 17:22:16;;;;;;;12.80;4.97;;;;;;;17.13;100.00;100886.13;10406461;28;20045;-73
2023/10/11 17:27:16;;;;;;;16.95;5.43;;;;;;;17.04;100.00;100860.09;10401372;28;20044;-75
2023/10/11 17:32:17;;;;;;;16.42;6.55;;;;;;;17.00;100.00;100841.53;10407609;28;20038;-75
2023/10/11 17:37:17;;;;;;;17.17;6.97;;;;;;;16.96;100.00;100857.97;10398774;28;20037;-76
2023/10/11 17:42:18;;;;;;;17.98;6.63;;;;;;;16.90;100.00;100881.41;10401802;28;20045;-72
2023/10/11 17:47:18;;;;;;;17.35;7.35;;;;;;;16.84;100.00;100874.25;10399473;28;20046;-75
2023/10/11 17:52:19;;;;;;;17.13;6.72;;;;;;;16.81;100.00;100889.59;10401231;28;20038;-74
2023/10/11 17:57:19;;;;;;;13.30;5.82;;;;;;;16.78;100.00;100872.63;10404221;28;20038;-76
2023/10/11 18:02:23;;;;;;;22.60;6.57;;;;;;;16.72;100.00;100824.59;10399854;28;20049;-70
2023/10/11 18:07:23;;;;;;;13.23;7.28;;;;;;;16.55;100.00;100822.31;10403072;28;20068;-79
2023/10/11 18:12:24;;;;;;;17.55;7.38;;;;;;;16.53;100.00;100819.00;10394607;28;20052;-78
2023/10/11 18:17:26;;;;;;;27.90;9.38;;;;;;;16.54;100.00;100840.94;10398141;28;20038;-75
2023/10/11 18:22:29;;;;;;;19.80;10.80;;;;;;;16.51;100.00;100857.38;10400994;28;20069;-76
2023/10/11 18:27:30;;;;;;;31.40;11.65;;;;;;;16.52;100.00;100859.03;10398036;28;20101;-82
2023/10/11 18:32:34;;;;;;;35.13;15.23;;;;;;;16.54;100.00;100888.19;10394168;28;20468;-75
2023/10/11 18:37:35;;;;;;;33.45;14.90;;;;;;;16.57;100.00;100867.31;10393632;28;20047;-78
2023/10/11 18:42:37;;;;;;;35.58;16.23;;;;;;;16.50;100.00;100867.66;10391782;28;20048;-78
2023/10/11 18:47:39;;;;;;;43.88;17.70;;;;;;;16.55;100.00;100881.47;10400577;28;20061;-76
2023/10/11 18:52:40;;;;;;;34.13;14.98;;;;;;;16.44;100.00;100868.00;10396224;28;20493;-80
2023/10/11 18:57:41;;;;;;;25.60;13.80;;;;;;;16.30;100.00;100865.09;10394274;28;20029;-77
2023/10/11 19:02:42;;;;;;;27.85;13.00;;;;;;;16.21;100.00;100864.91;10395181;28;20071;-76
2023/10/11 19:07:43;;;;;;;27.00;11.85;;;;;;;16.09;100.00;100862.50;10397684;28;20046;-74
2023/10/11 19:12:43;;;;;;;26.90;12.75;;;;;;;16.05;100.00;100843.94;10398685;28;20038;-76
2023/10/11 19:17:50;;;;;;;33.72;14.50;;;;;;;16.03;100.00;100851.75;10392151;28;20151;-73
2023/10/11 19:22:55;;;;;;;27.30;13.20;;;;;;;16.02;100.00;100852.84;10389293;28;20464;-77
2023/10/11 19:27:58;;;;;;;37.13;14.52;;;;;;;15.94;100.00;100843.22;10390420;28;20064;-77
2023/10/11 19:32:58;;;;;;;36.22;12.40;;;;;;;15.86;100.00;100825.22;10387992;28;20049;-78
2023/10/11 19:37:59;;;;;;;28.70;12.20;;;;;;;15.78;100.00;100792.53;10395383;28;20029;-78
2023/10/11 19:43:01;;;;;;;27.02;11.43;;;;;;;15.66;100.00;100825.38;10389766;28;20045;-75
2023/10/11 19:48:05;;;;;;;27.25;10.73;;;;;;;15.65;100.00;100818.19;10396596;28;20058;-75
2023/10/11 19:53:05;;;;;;;30.95;12.85;;;;;;;15.63;100.00;100831.50;10398101;28;20045;-75
2023/10/11 19:58:07;;;;;;;35.65;13.13;;;;;;;15.63;100.00;100842.63;10393381;28;20057;-73
2023/10/11 20:03:11;;;;;;;41.17;15.77;;;;;;;15.65;100.00;100832.06;10387921;28;20046;-73
2023/10/11 20:08:15;;;;;;;36.20;14.20;;;;;;;15.65;100.00;100807.06;10394141;28;20421;-75
2023/10/11 20:13:16;;;;;;;41.00;16.42;;;;;;;15.65;100.00;100807.06;10395385;28;20034;-76
2023/10/11 20:18:18;;;;;;;45.42;18.38;;;;;;;15.69;100.00;100810.94;10382264;28;20039;-75
2023/10/11 20:23:20;;;;;;;43.50;19.85;;;;;;;15.73;100.00;100818.41;10390893;28;20046;-74
2023/10/11 20:28:20;;;;;;;41.65;18.77;;;;;;;15.77;100.00;100806.72;10376908;28;20042;-75
2023/10/11 20:33:22;;;;;;;51.08;20.13;;;;;;;15.81;100.00;100816.94;10387126;28;20048;-75
2023/10/11 20:38:24;;;;;;;46.45;19.95;;;;;;;15.84;100.00;100808.03;10394917;28;20037;-75
2023/10/11 20:43:24;;;;;;;56.13;20.63;;;;;;;15.91;100.00;100802.13;10399436;28;20091;-76
2023/10/11 20:48:25;;;;;;;55.63;22.65;;;;;;;15.97;100.00;100811.25;10403569;28;20092;-75
2023/10/11 20:53:26;;;;;;;56.92;25.05;;;;;;;15.98;100.00;100810.13;10403211;28;20065;-75
2023/10/11 20:58:28;;;;;;;57.63;25.83;;;;;;;16.04;100.00;100804.25;10404410;28;20297;-74
2023/10/11 21:03:28;;;;;;;58.17;24.30;;;;;;;15.97;100.00;100798.19;10402145;28;20048;-75
2023/10/11 21:08:29;;;;;;;51.97;24.42;;;;;;;16.07;100.00;100827.81;10401243;28;20068;-74
2023/10/11 21:13:30;;;;;;;32.13;13.07;;;;;;;15.85;100.00;100856.88;10402581;28;20048;-78
2023/10/11 21:18:35;;;;;;;7.88;2.40;;;;;;;14.93;100.00;100880.44;10399054;28;20054;-77
2023/10/11 21:23:37;;;;;;;6.20;2.60;;;;;;;14.50;100.00;100865.31;10375748;28;20104;-77
2023/10/11 21:28:39;;;;;;;4.07;1.98;;;;;;;14.29;100.00;100886.69;10379506;28;20090;-74
2023/10/11 21:33:40;;;;;;;5.18;2.17;;;;;;;14.24;100.00;100886.69;10381671;28;20093;-74
2023/10/11 21:38:40;;;;;;;4.65;2.22;;;;;;;14.21;100.00;100893.59;10385615;28;20045;-80
2023/10/11 21:43:41;;;;;;;6.80;2.00;;;;;;;14.17;100.00;100900.00;10395886;28;20037;-76
2023/10/11 21:48:41;;;;;;;5.25;1.45;;;;;;;14.15;100.00;100896.66;10394215;28;20120;-73
2023/10/11 21:53:42;;;;;;;7.70;2.50;;;;;;;14.13;100.00;100897.75;10397803;28;20054;-74
2023/10/11 21:58:42;;;;;;;11.93;3.33;;;;;;;14.17;100.00;100900.81;10396562;28;20097;-74
2023/10/11 22:03:43;;;;;;;10.05;2.83;;;;;;;14.07;100.00;100890.56;10395640;28;20397;-78
2023/10/11 22:08:48;;;;;;;3.42;1.00;;;;;;;14.00;100.00;100928.78;10397595;28;20042;-77
2023/10/11 22:13:49;;;;;;;2.35;0.85;;;;;;;13.83;100.00;100922.66;10394658;28;20052;-74
2023/10/11 22:18:50;;;;;;;7.15;0.80;;;;;;;13.74;100.00;100916.84;10395380;28;20042;-74
2023/10/11 22:23:51;;;;;;;5.13;0.60;;;;;;;13.65;100.00;100910.19;10380825;28;20046;-76
2023/10/11 22:28:55;;;;;;;6.40;0.68;;;;;;;13.62;100.00;100905.19;10385272;28;20065;-76
2023/10/11 22:33:55;;;;;;;2.50;0.63;;;;;;;13.55;100.00;100910.19;10386109;28;20050;-76
2023/10/11 22:38:57;;;;;;;8.50;1.08;;;;;;;13.41;100.00;100930.03;10392584;28;20041;-75
2023/10/11 22:43:58;;;;;;;6.18;1.15;;;;;;;13.36;100.00;100921.75;10392939;28;20553;-75
2023/10/11 22:48:58;;;;;;;2.22;0.70;;;;;;;13.29;100.00;100919.25;10397980;28;20042;-75
2023/10/11 22:54:01;;;;;;;5.72;1.42;;;;;;;13.24;100.00;100943.22;10400118;28;20030;-75
2023/10/11 22:59:03;;;;;;;8.30;1.42;;;;;;;13.19;100.00;100946.81;10398419;28;20037;-75
2023/10/11 23:04:04;;;;;;;15.30;1.50;;;;;;;13.10;100.00;100942.88;10402222;28;20072;-75
2023/10/11 23:09:04;;;;;;;9.18;1.60;;;;;;;13.10;100.00;100943.75;10390808;28;20052;-74
2023/10/11 23:14:05;;;;;;;10.25;1.55;;;;;;;12.93;100.00;100927.34;10397886;28;20042;-74
2023/10/11 23:19:23;;;;;;;16.27;1.58;;;;;;;12.99;100.00;100964.13;10398152;28;20552;-74
2023/10/11 23:24:40;;;;;;;6.88;1.42;;;;;;;12.86;100.00;100979.25;10386648;28;20052;-74
2023/10/11 23:29:45;;;;;;;10.07;1.77;;;;;;;12.74;100.00;100972.28;10402262;28;20037;-74
2023/10/11 23:34:50;;;;;;;10.75;1.60;;;;;;;12.74;100.00;100964.81;10398128;28;20041;-74